sensor_id;sensor_type;location;lat;lon;timestamp;P1;durP1;ratioP1;P2;durP2;ratioP2
40322;SDS011;26030;51.164;17.100;2023-11-19T00:03:53;11.40;;;8.50;;
40322;SDS011;26030;51.164;17.100;2023-11-19T00:08:57;11.20;;;8.10;;
40322;SDS011;26030;51.164;17.100;2023-11-19T00:14:02;8.60;;;6.90;;
40322;SDS011;26030;51.164;17.100;2023-11-19T00:19:07;10.00;;;7.90;;
40322;SDS011;26030;51.164;17.100;2023-11-19T00:24:12;8.70;;;7.80;;
40322;SDS011;26030;51.164;17.100;2023-11-19T00:29:16;11.30;;;7.20;;
40322;SDS011;26030;51.164;17.100;2023-11-19T00:34:22;8.00;;;7.20;;
40322;SDS011;26030;51.164;17.100;2023-11-19T00:39:27;13.20;;;6.70;;
40322;SDS011;26030;51.164;17.100;2023-11-19T00:44:33;10.20;;;6.90;;
40322;SDS011;26030;51.164;17.100;2023-11-19T00:49:37;9.50;;;7.50;;
40322;SDS011;26030;51.164;17.100;2023-11-19T00:54:41;7.80;;;7.00;;
40322;SDS011;26030;51.164;17.100;2023-11-19T00:59:45;8.50;;;6.50;;
40322;SDS011;26030;51.164;17.100;2023-11-19T01:04:51;8.80;;;6.60;;
40322;SDS011;26030;51.164;17.100;2023-11-19T01:09:56;8.40;;;6.80;;
40322;SDS011;26030;51.164;17.100;2023-11-19T01:15:01;11.80;;;6.30;;
40322;SDS011;26030;51.164;17.100;2023-11-19T01:20:06;8.50;;;6.80;;
40322;SDS011;26030;51.164;17.100;2023-11-19T01:25:10;8.60;;;7.00;;
40322;SDS011;26030;51.164;17.100;2023-11-19T01:30:14;6.90;;;6.10;;
40322;SDS011;26030;51.164;17.100;2023-11-19T01:35:18;7.20;;;5.90;;
40322;SDS011;26030;51.164;17.100;2023-11-19T01:40:23;7.20;;;6.40;;
40322;SDS011;26030;51.164;17.100;2023-11-19T01:45:28;8.40;;;6.40;;
40322;SDS011;26030;51.164;17.100;2023-11-19T01:50:34;6.90;;;6.30;;
40322;SDS011;26030;51.164;17.100;2023-11-19T01:55:39;6.00;;;5.40;;
40322;SDS011;26030;51.164;17.100;2023-11-19T02:00:47;8.10;;;6.60;;
40322;SDS011;26030;51.164;17.100;2023-11-19T02:05:52;7.70;;;6.20;;
40322;SDS011;26030;51.164;17.100;2023-11-19T02:10:56;6.30;;;5.70;;
40322;SDS011;26030;51.164;17.100;2023-11-19T02:16:01;7.80;;;6.50;;
40322;SDS011;26030;51.164;17.100;2023-11-19T02:21:06;6.40;;;5.80;;
40322;SDS011;26030;51.164;17.100;2023-11-19T02:31:25;7.30;;;6.60;;
40322;SDS011;26030;51.164;17.100;2023-11-19T02:36:31;7.90;;;5.30;;
40322;SDS011;26030;51.164;17.100;2023-11-19T02:41:37;6.70;;;6.00;;
40322;SDS011;26030;51.164;17.100;2023-11-19T02:46:43;6.50;;;5.80;;
40322;SDS011;26030;51.164;17.100;2023-11-19T02:51:47;5.40;;;5.00;;
40322;SDS011;26030;51.164;17.100;2023-11-19T02:56:53;5.90;;;5.40;;
40322;SDS011;26030;51.164;17.100;2023-11-19T03:02:03;6.80;;;5.80;;
40322;SDS011;26030;51.164;17.100;2023-11-19T03:07:08;8.00;;;5.50;;
40322;SDS011;26030;51.164;17.100;2023-11-19T03:12:12;5.80;;;5.20;;
40322;SDS011;26030;51.164;17.100;2023-11-19T03:17:16;6.20;;;5.30;;
40322;SDS011;26030;51.164;17.100;2023-11-19T03:22:21;5.70;;;5.20;;
40322;SDS011;26030;51.164;17.100;2023-11-19T03:27:25;7.90;;;5.50;;
40322;SDS011;26030;51.164;17.100;2023-11-19T03:32:31;6.70;;;5.10;;
40322;SDS011;26030;51.164;17.100;2023-11-19T03:37:37;6.20;;;5.60;;
40322;SDS011;26030;51.164;17.100;2023-11-19T03:42:43;6.60;;;5.40;;
40322;SDS011;26030;51.164;17.100;2023-11-19T03:47:48;5.10;;;4.70;;
40322;SDS011;26030;51.164;17.100;2023-11-19T03:52:54;5.10;;;4.50;;
40322;SDS011;26030;51.164;17.100;2023-11-19T03:57:59;6.50;;;5.70;;
40322;SDS011;26030;51.164;17.100;2023-11-19T04:03:03;6.10;;;5.60;;
40322;SDS011;26030;51.164;17.100;2023-11-19T04:08:08;5.40;;;5.00;;
40322;SDS011;26030;51.164;17.100;2023-11-19T04:13:12;5.40;;;4.90;;
40322;SDS011;26030;51.164;17.100;2023-11-19T04:18:17;5.60;;;5.00;;
40322;SDS011;26030;51.164;17.100;2023-11-19T04:23:21;6.20;;;5.40;;
40322;SDS011;26030;51.164;17.100;2023-11-19T04:28:26;6.90;;;4.90;;
40322;SDS011;26030;51.164;17.100;2023-11-19T04:33:31;5.10;;;4.60;;
40322;SDS011;26030;51.164;17.100;2023-11-19T04:38:35;5.30;;;4.70;;
40322;SDS011;26030;51.164;17.100;2023-11-19T04:43:39;6.80;;;5.40;;
40322;SDS011;26030;51.164;17.100;2023-11-19T04:48:44;4.50;;;4.10;;
40322;SDS011;26030;51.164;17.100;2023-11-19T04:53:48;5.20;;;4.70;;
40322;SDS011;26030;51.164;17.100;2023-11-19T04:58:52;5.90;;;4.80;;
40322;SDS011;26030;51.164;17.100;2023-11-19T05:03:56;5.20;;;4.70;;
40322;SDS011;26030;51.164;17.100;2023-11-19T05:09:04;5.40;;;4.80;;
40322;SDS011;26030;51.164;17.100;2023-11-19T05:14:11;4.70;;;4.20;;
40322;SDS011;26030;51.164;17.100;2023-11-19T05:19:15;5.40;;;4.90;;
40322;SDS011;26030;51.164;17.100;2023-11-19T05:24:20;5.40;;;4.90;;
40322;SDS011;26030;51.164;17.100;2023-11-19T05:29:24;4.90;;;4.50;;
40322;SDS011;26030;51.164;17.100;2023-11-19T05:34:28;5.10;;;4.60;;
40322;SDS011;26030;51.164;17.100;2023-11-19T05:39:33;5.20;;;4.70;;
40322;SDS011;26030;51.164;17.100;2023-11-19T05:44:37;5.10;;;4.60;;
40322;SDS011;26030;51.164;17.100;2023-11-19T05:49:44;7.20;;;5.00;;
40322;SDS011;26030;51.164;17.100;2023-11-19T05:54:48;4.70;;;4.30;;
40322;SDS011;26030;51.164;17.100;2023-11-19T05:59:55;5.10;;;4.60;;
40322;SDS011;26030;51.164;17.100;2023-11-19T06:05:00;5.00;;;4.50;;
40322;SDS011;26030;51.164;17.100;2023-11-19T06:10:05;4.80;;;4.30;;
40322;SDS011;26030;51.164;17.100;2023-11-19T06:15:10;4.10;;;3.70;;
40322;SDS011;26030;51.164;17.100;2023-11-19T06:20:15;4.60;;;4.20;;
40322;SDS011;26030;51.164;17.100;2023-11-19T06:25:21;5.20;;;4.70;;
40322;SDS011;26030;51.164;17.100;2023-11-19T06:30:25;4.90;;;4.40;;
40322;SDS011;26030;51.164;17.100;2023-11-19T06:35:32;6.60;;;4.50;;
40322;SDS011;26030;51.164;17.100;2023-11-19T06:40:40;4.60;;;4.20;;
40322;SDS011;26030;51.164;17.100;2023-11-19T06:45:45;5.00;;;4.50;;
40322;SDS011;26030;51.164;17.100;2023-11-19T06:50:49;4.90;;;4.00;;
40322;SDS011;26030;51.164;17.100;2023-11-19T06:55:54;6.00;;;4.10;;
40322;SDS011;26030;51.164;17.100;2023-11-19T07:00:58;4.60;;;4.20;;
40322;SDS011;26030;51.164;17.100;2023-11-19T07:06:03;4.80;;;4.40;;
40322;SDS011;26030;51.164;17.100;2023-11-19T07:11:09;3.90;;;3.60;;
40322;SDS011;26030;51.164;17.100;2023-11-19T07:16:14;4.50;;;4.00;;
40322;SDS011;26030;51.164;17.100;2023-11-19T07:21:20;4.40;;;4.00;;
40322;SDS011;26030;51.164;17.100;2023-11-19T07:26:24;3.90;;;3.50;;
40322;SDS011;26030;51.164;17.100;2023-11-19T07:31:28;4.70;;;4.30;;
40322;SDS011;26030;51.164;17.100;2023-11-19T07:36:33;5.10;;;4.50;;
40322;SDS011;26030;51.164;17.100;2023-11-19T07:41:37;6.50;;;3.70;;
40322;SDS011;26030;51.164;17.100;2023-11-19T07:46:42;5.10;;;4.30;;
40322;SDS011;26030;51.164;17.100;2023-11-19T07:51:46;4.30;;;3.90;;
40322;SDS011;26030;51.164;17.100;2023-11-19T07:56:50;4.10;;;3.80;;
40322;SDS011;26030;51.164;17.100;2023-11-19T08:01:55;4.10;;;3.80;;
40322;SDS011;26030;51.164;17.100;2023-11-19T08:07:00;4.00;;;3.70;;
40322;SDS011;26030;51.164;17.100;2023-11-19T08:12:05;4.50;;;4.10;;
40322;SDS011;26030;51.164;17.100;2023-11-19T08:17:11;3.90;;;3.60;;
40322;SDS011;26030;51.164;17.100;2023-11-19T08:22:16;4.40;;;4.00;;
40322;SDS011;26030;51.164;17.100;2023-11-19T08:27:20;3.80;;;3.50;;
40322;SDS011;26030;51.164;17.100;2023-11-19T08:32:30;3.90;;;3.60;;
40322;SDS011;26030;51.164;17.100;2023-11-19T08:37:34;4.10;;;3.80;;
40322;SDS011;26030;51.164;17.100;2023-11-19T08:42:40;4.60;;;4.10;;
40322;SDS011;26030;51.164;17.100;2023-11-19T08:47:45;5.60;;;3.50;;
40322;SDS011;26030;51.164;17.100;2023-11-19T08:52:49;8.00;;;4.10;;
40322;SDS011;26030;51.164;17.100;2023-11-19T08:57:53;4.30;;;3.90;;
40322;SDS011;26030;51.164;17.100;2023-11-19T09:02:58;5.60;;;4.10;;
40322;SDS011;26030;51.164;17.100;2023-11-19T09:08:04;4.00;;;3.70;;
40322;SDS011;26030;51.164;17.100;2023-11-19T09:13:09;4.10;;;3.60;;
40322;SDS011;26030;51.164;17.100;2023-11-19T09:18:13;4.80;;;3.90;;
40322;SDS011;26030;51.164;17.100;2023-11-19T09:23:18;3.80;;;3.50;;
40322;SDS011;26030;51.164;17.100;2023-11-19T09:28:22;5.60;;;3.80;;
40322;SDS011;26030;51.164;17.100;2023-11-19T09:33:26;5.30;;;3.70;;
40322;SDS011;26030;51.164;17.100;2023-11-19T09:38:31;4.90;;;4.10;;
40322;SDS011;26030;51.164;17.100;2023-11-19T09:43:36;4.70;;;4.30;;
40322;SDS011;26030;51.164;17.100;2023-11-19T09:48:40;3.90;;;3.50;;
40322;SDS011;26030;51.164;17.100;2023-11-19T09:53:45;4.00;;;3.70;;
40322;SDS011;26030;51.164;17.100;2023-11-19T09:58:50;4.90;;;3.60;;
40322;SDS011;26030;51.164;17.100;2023-11-19T10:03:56;6.00;;;3.70;;
40322;SDS011;26030;51.164;17.100;2023-11-19T10:09:01;3.80;;;3.50;;
40322;SDS011;26030;51.164;17.100;2023-11-19T10:14:09;8.40;;;3.70;;
40322;SDS011;26030;51.164;17.100;2023-11-19T10:19:19;6.60;;;4.00;;
40322;SDS011;26030;51.164;17.100;2023-11-19T10:24:43;6.70;;;3.70;;
40322;SDS011;26030;51.164;17.100;2023-11-19T10:29:54;8.20;;;4.00;;
40322;SDS011;26030;51.164;17.100;2023-11-19T10:35:05;5.40;;;3.70;;
40322;SDS011;26030;51.164;17.100;2023-11-19T10:40:16;5.60;;;3.60;;
40322;SDS011;26030;51.164;17.100;2023-11-19T10:45:24;8.10;;;3.50;;
40322;SDS011;26030;51.164;17.100;2023-11-19T10:50:28;7.70;;;3.80;;
40322;SDS011;26030;51.164;17.100;2023-11-19T10:55:34;9.20;;;3.90;;
40322;SDS011;26030;51.164;17.100;2023-11-19T11:00:45;5.80;;;3.30;;
40322;SDS011;26030;51.164;17.100;2023-11-19T11:05:54;10.20;;;3.90;;
40322;SDS011;26030;51.164;17.100;2023-11-19T11:11:00;4.60;;;3.50;;
40322;SDS011;26030;51.164;17.100;2023-11-19T11:16:06;23.50;;;4.30;;
40322;SDS011;26030;51.164;17.100;2023-11-19T11:21:17;13.10;;;5.40;;
40322;SDS011;26030;51.164;17.100;2023-11-19T11:37:25;9.80;;;3.70;;
40322;SDS011;26030;51.164;17.100;2023-11-19T11:42:33;10.70;;;4.00;;
40322;SDS011;26030;51.164;17.100;2023-11-19T11:58:03;8.10;;;3.80;;
40322;SDS011;26030;51.164;17.100;2023-11-19T12:03:09;6.80;;;3.70;;
40322;SDS011;26030;51.164;17.100;2023-11-19T12:08:20;3.60;;;3.30;;
40322;SDS011;26030;51.164;17.100;2023-11-19T12:13:53;4.10;;;3.60;;
40322;SDS011;26030;51.164;17.100;2023-11-19T12:19:04;4.00;;;3.20;;
40322;SDS011;26030;51.164;17.100;2023-11-19T12:24:10;4.70;;;3.20;;
40322;SDS011;26030;51.164;17.100;2023-11-19T12:29:16;4.80;;;3.50;;
40322;SDS011;26030;51.164;17.100;2023-11-19T12:34:23;3.60;;;3.30;;
40322;SDS011;26030;51.164;17.100;2023-11-19T12:39:32;4.00;;;3.30;;
40322;SDS011;26030;51.164;17.100;2023-11-19T12:44:36;3.80;;;3.10;;
40322;SDS011;26030;51.164;17.100;2023-11-19T12:49:41;3.50;;;3.00;;
40322;SDS011;26030;51.164;17.100;2023-11-19T12:54:46;3.10;;;2.80;;
40322;SDS011;26030;51.164;17.100;2023-11-19T12:59:55;3.40;;;3.10;;
40322;SDS011;26030;51.164;17.100;2023-11-19T13:05:21;6.20;;;3.20;;
40322;SDS011;26030;51.164;17.100;2023-11-19T13:10:26;3.50;;;3.00;;
40322;SDS011;26030;51.164;17.100;2023-11-19T13:15:32;3.50;;;2.70;;
40322;SDS011;26030;51.164;17.100;2023-11-19T13:20:36;3.40;;;3.10;;
40322;SDS011;26030;51.164;17.100;2023-11-19T13:25:41;5.20;;;4.10;;
40322;SDS011;26030;51.164;17.100;2023-11-19T13:30:45;8.00;;;3.30;;
40322;SDS011;26030;51.164;17.100;2023-11-19T13:35:50;4.60;;;2.90;;
40322;SDS011;26030;51.164;17.100;2023-11-19T13:40:55;6.70;;;3.20;;
40322;SDS011;26030;51.164;17.100;2023-11-19T13:46:00;7.40;;;3.50;;
40322;SDS011;26030;51.164;17.100;2023-11-19T13:51:07;4.60;;;3.40;;
40322;SDS011;26030;51.164;17.100;2023-11-19T13:56:11;6.10;;;3.30;;
40322;SDS011;26030;51.164;17.100;2023-11-19T14:01:16;6.70;;;3.00;;
40322;SDS011;26030;51.164;17.100;2023-11-19T14:06:21;6.20;;;2.90;;
40322;SDS011;26030;51.164;17.100;2023-11-19T14:11:27;4.70;;;3.30;;
40322;SDS011;26030;51.164;17.100;2023-11-19T14:16:31;5.70;;;3.10;;
40322;SDS011;26030;51.164;17.100;2023-11-19T14:21:39;4.60;;;3.50;;
40322;SDS011;26030;51.164;17.100;2023-11-19T14:26:48;5.20;;;3.20;;
40322;SDS011;26030;51.164;17.100;2023-11-19T14:31:57;6.90;;;4.10;;
40322;SDS011;26030;51.164;17.100;2023-11-19T14:37:05;9.10;;;3.80;;
40322;SDS011;26030;51.164;17.100;2023-11-19T14:42:11;5.30;;;4.20;;
40322;SDS011;26030;51.164;17.100;2023-11-19T14:47:22;6.90;;;4.60;;
40322;SDS011;26030;51.164;17.100;2023-11-19T14:52:26;9.10;;;4.80;;
40322;SDS011;26030;51.164;17.100;2023-11-19T14:57:32;8.70;;;4.00;;
40322;SDS011;26030;51.164;17.100;2023-11-19T15:02:41;8.20;;;4.40;;
40322;SDS011;26030;51.164;17.100;2023-11-19T15:07:47;7.10;;;4.20;;
40322;SDS011;26030;51.164;17.100;2023-11-19T15:12:54;5.30;;;4.20;;
40322;SDS011;26030;51.164;17.100;2023-11-19T15:18:00;5.80;;;4.40;;
40322;SDS011;26030;51.164;17.100;2023-11-19T15:23:05;6.10;;;4.70;;
40322;SDS011;26030;51.164;17.100;2023-11-19T15:28:13;6.40;;;4.50;;
40322;SDS011;26030;51.164;17.100;2023-11-19T15:33:18;6.50;;;5.00;;
40322;SDS011;26030;51.164;17.100;2023-11-19T15:38:24;5.00;;;4.40;;
40322;SDS011;26030;51.164;17.100;2023-11-19T15:43:31;5.20;;;4.70;;
40322;SDS011;26030;51.164;17.100;2023-11-19T15:48:36;6.20;;;3.90;;
40322;SDS011;26030;51.164;17.100;2023-11-19T15:53:43;5.20;;;4.30;;
40322;SDS011;26030;51.164;17.100;2023-11-19T15:58:49;6.50;;;5.00;;
40322;SDS011;26030;51.164;17.100;2023-11-19T16:03:54;4.90;;;4.40;;
40322;SDS011;26030;51.164;17.100;2023-11-19T16:08:59;7.40;;;4.30;;
40322;SDS011;26030;51.164;17.100;2023-11-19T16:14:04;11.50;;;5.70;;
40322;SDS011;26030;51.164;17.100;2023-11-19T16:19:09;22.10;;;6.30;;
40322;SDS011;26030;51.164;17.100;2023-11-19T16:24:14;15.60;;;5.80;;
40322;SDS011;26030;51.164;17.100;2023-11-19T16:29:18;10.30;;;4.80;;
40322;SDS011;26030;51.164;17.100;2023-11-19T16:34:25;12.80;;;5.40;;
40322;SDS011;26030;51.164;17.100;2023-11-19T16:39:31;10.70;;;6.10;;
40322;SDS011;26030;51.164;17.100;2023-11-19T16:44:37;14.80;;;7.10;;
40322;SDS011;26030;51.164;17.100;2023-11-19T16:49:43;13.00;;;6.20;;
40322;SDS011;26030;51.164;17.100;2023-11-19T16:54:48;10.80;;;6.30;;
40322;SDS011;26030;51.164;17.100;2023-11-19T16:59:54;10.20;;;6.20;;
40322;SDS011;26030;51.164;17.100;2023-11-19T17:05:02;8.10;;;5.40;;
40322;SDS011;26030;51.164;17.100;2023-11-19T17:10:10;8.10;;;5.90;;
40322;SDS011;26030;51.164;17.100;2023-11-19T17:15:16;7.50;;;5.30;;
40322;SDS011;26030;51.164;17.100;2023-11-19T17:20:22;13.00;;;5.80;;
40322;SDS011;26030;51.164;17.100;2023-11-19T17:25:28;8.90;;;5.20;;
40322;SDS011;26030;51.164;17.100;2023-11-19T17:30:37;9.10;;;5.10;;
40322;SDS011;26030;51.164;17.100;2023-11-19T17:35:43;9.40;;;5.40;;
40322;SDS011;26030;51.164;17.100;2023-11-19T17:40:49;9.70;;;4.80;;
40322;SDS011;26030;51.164;17.100;2023-11-19T17:45:55;8.30;;;5.00;;
40322;SDS011;26030;51.164;17.100;2023-11-19T17:51:06;9.20;;;5.20;;
40322;SDS011;26030;51.164;17.100;2023-11-19T17:56:11;8.90;;;5.00;;
40322;SDS011;26030;51.164;17.100;2023-11-19T18:01:17;11.30;;;5.30;;
40322;SDS011;26030;51.164;17.100;2023-11-19T18:06:25;9.70;;;5.20;;
40322;SDS011;26030;51.164;17.100;2023-11-19T18:11:36;12.00;;;5.20;;
40322;SDS011;26030;51.164;17.100;2023-11-19T18:16:42;11.90;;;5.40;;
40322;SDS011;26030;51.164;17.100;2023-11-19T18:21:49;9.50;;;5.10;;
40322;SDS011;26030;51.164;17.100;2023-11-19T18:26:54;12.60;;;5.10;;
40322;SDS011;26030;51.164;17.100;2023-11-19T18:32:01;8.70;;;5.00;;
40322;SDS011;26030;51.164;17.100;2023-11-19T18:37:09;12.30;;;5.70;;
40322;SDS011;26030;51.164;17.100;2023-11-19T18:42:15;16.30;;;6.50;;
40322;SDS011;26030;51.164;17.100;2023-11-19T18:47:24;15.60;;;5.80;;
40322;SDS011;26030;51.164;17.100;2023-11-19T18:52:30;16.60;;;6.90;;
40322;SDS011;26030;51.164;17.100;2023-11-19T18:57:37;15.70;;;6.10;;
40322;SDS011;26030;51.164;17.100;2023-11-19T19:02:45;16.60;;;6.20;;
40322;SDS011;26030;51.164;17.100;2023-11-19T19:07:57;11.90;;;5.40;;
40322;SDS011;26030;51.164;17.100;2023-11-19T19:13:05;16.40;;;6.10;;
40322;SDS011;26030;51.164;17.100;2023-11-19T19:18:13;9.90;;;5.00;;
40322;SDS011;26030;51.164;17.100;2023-11-19T19:23:19;13.30;;;7.90;;
40322;SDS011;26030;51.164;17.100;2023-11-19T19:28:27;9.90;;;5.80;;
40322;SDS011;26030;51.164;17.100;2023-11-19T19:33:35;13.50;;;6.30;;
40322;SDS011;26030;51.164;17.100;2023-11-19T19:38:40;13.90;;;6.20;;
40322;SDS011;26030;51.164;17.100;2023-11-19T19:43:49;10.60;;;5.90;;
40322;SDS011;26030;51.164;17.100;2023-11-19T19:48:54;11.20;;;5.30;;
40322;SDS011;26030;51.164;17.100;2023-11-19T19:54:00;11.10;;;5.80;;
40322;SDS011;26030;51.164;17.100;2023-11-19T19:59:06;13.10;;;5.70;;
40322;SDS011;26030;51.164;17.100;2023-11-19T20:04:11;11.90;;;5.50;;
40322;SDS011;26030;51.164;17.100;2023-11-19T20:09:17;9.70;;;5.10;;
40322;SDS011;26030;51.164;17.100;2023-11-19T20:14:23;11.70;;;5.30;;
40322;SDS011;26030;51.164;17.100;2023-11-19T20:19:30;14.20;;;6.10;;
40322;SDS011;26030;51.164;17.100;2023-11-19T20:24:35;8.70;;;5.20;;
40322;SDS011;26030;51.164;17.100;2023-11-19T20:29:40;12.40;;;6.20;;
40322;SDS011;26030;51.164;17.100;2023-11-19T20:34:45;21.10;;;6.10;;
40322;SDS011;26030;51.164;17.100;2023-11-19T20:39:51;18.10;;;6.10;;
40322;SDS011;26030;51.164;17.100;2023-11-19T20:44:59;16.00;;;6.00;;
40322;SDS011;26030;51.164;17.100;2023-11-19T20:50:05;21.10;;;6.20;;
40322;SDS011;26030;51.164;17.100;2023-11-19T20:55:12;10.40;;;6.40;;
40322;SDS011;26030;51.164;17.100;2023-11-19T21:00:18;12.20;;;5.60;;
40322;SDS011;26030;51.164;17.100;2023-11-19T21:05:26;16.80;;;6.30;;
40322;SDS011;26030;51.164;17.100;2023-11-19T21:10:31;14.90;;;5.60;;
40322;SDS011;26030;51.164;17.100;2023-11-19T21:15:36;18.20;;;6.50;;
40322;SDS011;26030;51.164;17.100;2023-11-19T21:20:52;12.10;;;4.90;;
40322;SDS011;26030;51.164;17.100;2023-11-19T21:25:58;11.10;;;5.80;;
40322;SDS011;26030;51.164;17.100;2023-11-19T21:31:03;9.80;;;4.60;;
40322;SDS011;26030;51.164;17.100;2023-11-19T21:36:08;12.20;;;5.30;;
40322;SDS011;26030;51.164;17.100;2023-11-19T21:41:13;8.60;;;5.10;;
40322;SDS011;26030;51.164;17.100;2023-11-19T21:46:18;8.20;;;5.50;;
40322;SDS011;26030;51.164;17.100;2023-11-19T21:51:24;11.30;;;5.20;;
40322;SDS011;26030;51.164;17.100;2023-11-19T21:56:29;7.70;;;4.90;;
40322;SDS011;26030;51.164;17.100;2023-11-19T22:01:33;11.80;;;4.60;;
40322;SDS011;26030;51.164;17.100;2023-11-19T22:06:38;8.80;;;5.10;;
40322;SDS011;26030;51.164;17.100;2023-11-19T22:11:43;12.20;;;5.70;;
40322;SDS011;26030;51.164;17.100;2023-11-19T22:16:47;11.40;;;5.50;;
40322;SDS011;26030;51.164;17.100;2023-11-19T22:21:51;10.50;;;5.10;;
40322;SDS011;26030;51.164;17.100;2023-11-19T22:26:55;6.50;;;4.50;;
40322;SDS011;26030;51.164;17.100;2023-11-19T22:32:00;9.50;;;4.80;;
40322;SDS011;26030;51.164;17.100;2023-11-19T22:37:04;7.40;;;5.60;;
40322;SDS011;26030;51.164;17.100;2023-11-19T22:42:11;9.80;;;4.80;;
40322;SDS011;26030;51.164;17.100;2023-11-19T22:47:15;5.80;;;4.50;;
40322;SDS011;26030;51.164;17.100;2023-11-19T22:52:20;9.40;;;4.80;;
40322;SDS011;26030;51.164;17.100;2023-11-19T22:57:24;7.40;;;4.90;;
40322;SDS011;26030;51.164;17.100;2023-11-19T23:02:31;7.70;;;5.00;;
40322;SDS011;26030;51.164;17.100;2023-11-19T23:07:37;6.20;;;4.20;;
40322;SDS011;26030;51.164;17.100;2023-11-19T23:12:41;8.90;;;4.60;;
40322;SDS011;26030;51.164;17.100;2023-11-19T23:17:46;9.10;;;5.10;;
40322;SDS011;26030;51.164;17.100;2023-11-19T23:22:51;7.80;;;5.00;;
40322;SDS011;26030;51.164;17.100;2023-11-19T23:27:55;7.00;;;4.00;;
40322;SDS011;26030;51.164;17.100;2023-11-19T23:33:00;6.80;;;4.00;;
40322;SDS011;26030;51.164;17.100;2023-11-19T23:38:04;7.90;;;4.40;;
40322;SDS011;26030;51.164;17.100;2023-11-19T23:43:08;5.40;;;4.20;;
40322;SDS011;26030;51.164;17.100;2023-11-19T23:48:14;5.70;;;4.40;;
40322;SDS011;26030;51.164;17.100;2023-11-19T23:53:18;4.50;;;3.80;;
40322;SDS011;26030;51.164;17.100;2023-11-19T23:58:23;6.20;;;4.00;;
